This is the latest recevied weather packets stored in our database for station/object DK0KTL-4. If no packets are shown the sender has not sent any weather packets the latest 10 day(s).
| Time | Temp. | Humidity | Pressure | Rain* | Wind** | Luminosity | Snow |
|---|---|---|---|---|---|---|---|
| 1777451841 | 12.22° C | 46% | 1027.1 hPa | 0 mm | - | - | - |
| 1777450640 | 11.11° C | 47% | 1026.9 hPa | 0 mm | - | - | - |
| 1777447637 | 7.78° C | 60% | 1026.4 hPa | 0 mm | - | - | - |
| 1777446436 | 6.11° C | 64% | 1026.2 hPa | 0 mm | - | - | - |
| 1777445235 | 4.44° C | 66% | 1026.1 hPa | 0 mm | - | - | - |
| 1777443133 | 2.78° C | 71% | 1026.2 hPa | 0 mm | - | - | - |
| 1777442832 | 2.22° C | 73% | 1026.1 hPa | 0 mm | - | - | - |
| 1777441331 | 1.11° C | 77% | 1026 hPa | 0 mm | - | - | - |
| 1777440430 | 1.11° C | 77% | 1025.9 hPa | 0 mm | - | - | - |
| 1777439829 | 1.11° C | 77% | 1025.8 hPa | 0 mm | - | - | - |
| 1777439229 | 0.56° C | 77% | 1025.7 hPa | 0 mm | - | - | - |
| 1777438928 | 0.56° C | 78% | 1025.7 hPa | 0 mm | - | - | - |
| 1777438328 | 0.56° C | 77% | 1025.6 hPa | 0 mm | - | - | - |
| 1777438027 | 0.56° C | 76% | 1025.7 hPa | 0 mm | - | - | - |
| 1777436226 | 0.56° C | 75% | 1025.4 hPa | 0 mm | - | - | - |
| 1777435925 | 0.56° C | 75% | 1025.4 hPa | 0 mm | - | - | - |
| 1777435325 | 0.56° C | 75% | 1025.2 hPa | 0 mm | - | - | - |
| 1777435024 | 0.56° C | 75% | 1025.3 hPa | 0 mm | - | - | - |
| 1777434124 | 0.56° C | 75% | 1025.2 hPa | 0 mm | - | - | - |
| 1777433523 | 0° C | 77% | 1025.1 hPa | 0 mm | - | - | - |
| 1777433223 | 0° C | 77% | 1025.1 hPa | 0 mm | - | - | - |
| 1777432922 | 0° C | 77% | 1025.1 hPa | 0 mm | - | - | - |
| 1777432022 | 0.56° C | 76% | 1025 hPa | 0 mm | - | - | - |
| 1777431722 | 0.56° C | 75% | 1024.9 hPa | 0 mm | - | - | - |
| 1777430220 | 1.11° C | 73% | 1024.8 hPa | 0 mm | - | - | - |
* Rain latest hour (hover to see other rain measurements)
** Current wind speed in m/s (hover to see current wind gust speed)